sensor_id;sensor_type;location;lat;lon;timestamp;P1;durP1;ratioP1;P2;durP2;ratioP2
25023;SDS011;13033;50.936;5.334;2023-07-29T00:01:30;3.13;;;2.20;;
25023;SDS011;13033;50.936;5.334;2023-07-29T00:03:56;3.05;;;2.20;;
25023;SDS011;13033;50.936;5.334;2023-07-29T00:06:22;2.75;;;2.33;;
25023;SDS011;13033;50.936;5.334;2023-07-29T00:08:48;4.75;;;2.72;;
25023;SDS011;13033;50.936;5.334;2023-07-29T00:11:14;4.28;;;2.40;;
25023;SDS011;13033;50.936;5.334;2023-07-29T00:13:40;6.13;;;2.60;;
25023;SDS011;13033;50.936;5.334;2023-07-29T00:16:06;3.75;;;2.40;;
25023;SDS011;13033;50.936;5.334;2023-07-29T00:18:31;5.82;;;2.20;;
25023;SDS011;13033;50.936;5.334;2023-07-29T00:20:57;2.83;;;2.28;;
25023;SDS011;13033;50.936;5.334;2023-07-29T00:23:23;5.10;;;2.20;;
25023;SDS011;13033;50.936;5.334;2023-07-29T00:25:49;4.25;;;2.17;;
25023;SDS011;13033;50.936;5.334;2023-07-29T00:28:15;4.82;;;2.20;;
25023;SDS011;13033;50.936;5.334;2023-07-29T00:30:40;3.97;;;2.40;;
25023;SDS011;13033;50.936;5.334;2023-07-29T00:33:06;3.50;;;2.17;;
25023;SDS011;13033;50.936;5.334;2023-07-29T00:35:32;3.67;;;2.20;;
25023;SDS011;13033;50.936;5.334;2023-07-29T00:37:58;5.47;;;2.50;;
25023;SDS011;13033;50.936;5.334;2023-07-29T00:40:23;6.43;;;2.30;;
25023;SDS011;13033;50.936;5.334;2023-07-29T00:42:49;3.75;;;2.40;;
25023;SDS011;13033;50.936;5.334;2023-07-29T00:45:15;3.40;;;2.20;;
25023;SDS011;13033;50.936;5.334;2023-07-29T00:47:42;3.88;;;2.50;;
25023;SDS011;13033;50.936;5.334;2023-07-29T00:50:09;6.47;;;2.80;;
25023;SDS011;13033;50.936;5.334;2023-07-29T00:52:36;5.10;;;2.30;;
25023;SDS011;13033;50.936;5.334;2023-07-29T00:55:02;3.83;;;2.50;;
25023;SDS011;13033;50.936;5.334;2023-07-29T00:57:29;5.65;;;2.55;;
25023;SDS011;13033;50.936;5.334;2023-07-29T00:59:55;3.65;;;2.33;;
25023;SDS011;13033;50.936;5.334;2023-07-29T01:02:21;2.80;;;2.17;;
25023;SDS011;13033;50.936;5.334;2023-07-29T01:04:53;5.05;;;2.60;;
25023;SDS011;13033;50.936;5.334;2023-07-29T01:15:36;3.08;;;2.78;;
25023;SDS011;13033;50.936;5.334;2023-07-29T01:18:24;4.88;;;2.50;;
25023;SDS011;13033;50.936;5.334;2023-07-29T01:20:53;5.13;;;2.60;;
25023;SDS011;13033;50.936;5.334;2023-07-29T01:23:23;4.18;;;2.15;;
25023;SDS011;13033;50.936;5.334;2023-07-29T01:25:50;3.63;;;1.73;;
25023;SDS011;13033;50.936;5.334;2023-07-29T01:28:15;2.70;;;1.70;;
25023;SDS011;13033;50.936;5.334;2023-07-29T01:30:41;2.92;;;1.85;;
25023;SDS011;13033;50.936;5.334;2023-07-29T01:35:54;4.50;;;2.00;;
25023;SDS011;13033;50.936;5.334;2023-07-29T01:38:31;3.20;;;2.00;;
25023;SDS011;13033;50.936;5.334;2023-07-29T01:41:04;5.07;;;2.15;;
25023;SDS011;13033;50.936;5.334;2023-07-29T01:43:32;5.03;;;2.30;;
25023;SDS011;13033;50.936;5.334;2023-07-29T01:45:59;3.90;;;2.72;;
25023;SDS011;13033;50.936;5.334;2023-07-29T01:48:26;4.65;;;2.60;;
25023;SDS011;13033;50.936;5.334;2023-07-29T01:50:53;3.58;;;2.30;;
25023;SDS011;13033;50.936;5.334;2023-07-29T01:53:19;2.70;;;2.38;;
25023;SDS011;13033;50.936;5.334;2023-07-29T01:55:45;3.15;;;2.20;;
25023;SDS011;13033;50.936;5.334;2023-07-29T01:58:10;5.60;;;2.22;;
25023;SDS011;13033;50.936;5.334;2023-07-29T02:00:36;3.40;;;2.35;;
25023;SDS011;13033;50.936;5.334;2023-07-29T02:03:02;7.30;;;2.08;;
25023;SDS011;13033;50.936;5.334;2023-07-29T02:05:28;4.43;;;2.58;;
25023;SDS011;13033;50.936;5.334;2023-07-29T02:07:53;4.80;;;2.63;;
25023;SDS011;13033;50.936;5.334;2023-07-29T02:10:19;2.55;;;2.03;;
25023;SDS011;13033;50.936;5.334;2023-07-29T02:12:45;4.65;;;2.30;;
25023;SDS011;13033;50.936;5.334;2023-07-29T02:15:10;4.55;;;2.10;;
25023;SDS011;13033;50.936;5.334;2023-07-29T02:17:36;4.40;;;2.10;;
25023;SDS011;13033;50.936;5.334;2023-07-29T02:20:03;2.55;;;2.00;;
25023;SDS011;13033;50.936;5.334;2023-07-29T02:22:29;2.75;;;1.88;;
25023;SDS011;13033;50.936;5.334;2023-07-29T02:24:55;4.18;;;2.15;;
25023;SDS011;13033;50.936;5.334;2023-07-29T02:27:20;4.07;;;2.00;;
25023;SDS011;13033;50.936;5.334;2023-07-29T02:29:46;4.07;;;1.85;;
25023;SDS011;13033;50.936;5.334;2023-07-29T02:32:12;7.43;;;1.90;;
25023;SDS011;13033;50.936;5.334;2023-07-29T02:34:38;2.53;;;2.10;;
25023;SDS011;13033;50.936;5.334;2023-07-29T02:37:03;6.10;;;2.40;;
25023;SDS011;13033;50.936;5.334;2023-07-29T02:39:30;6.10;;;1.98;;
25023;SDS011;13033;50.936;5.334;2023-07-29T02:41:56;6.82;;;1.92;;
25023;SDS011;13033;50.936;5.334;2023-07-29T02:44:23;5.25;;;1.95;;
25023;SDS011;13033;50.936;5.334;2023-07-29T02:46:49;5.47;;;2.03;;
25023;SDS011;13033;50.936;5.334;2023-07-29T02:49:14;3.65;;;2.03;;
25023;SDS011;13033;50.936;5.334;2023-07-29T02:51:40;6.47;;;2.15;;
25023;SDS011;13033;50.936;5.334;2023-07-29T02:54:05;2.97;;;2.17;;
25023;SDS011;13033;50.936;5.334;2023-07-29T02:56:31;5.97;;;2.03;;
25023;SDS011;13033;50.936;5.334;2023-07-29T02:58:57;5.75;;;1.83;;
25023;SDS011;13033;50.936;5.334;2023-07-29T03:01:23;3.17;;;1.90;;
25023;SDS011;13033;50.936;5.334;2023-07-29T03:03:50;3.95;;;1.90;;
25023;SDS011;13033;50.936;5.334;2023-07-29T03:06:16;4.35;;;2.22;;
25023;SDS011;13033;50.936;5.334;2023-07-29T03:08:41;4.70;;;2.28;;
25023;SDS011;13033;50.936;5.334;2023-07-29T03:11:08;2.63;;;1.95;;
25023;SDS011;13033;50.936;5.334;2023-07-29T03:13:35;4.55;;;1.88;;
25023;SDS011;13033;50.936;5.334;2023-07-29T03:16:19;2.15;;;1.88;;
25023;SDS011;13033;50.936;5.334;2023-07-29T03:18:45;3.20;;;1.85;;
25023;SDS011;13033;50.936;5.334;2023-07-29T03:21:10;4.28;;;1.83;;
25023;SDS011;13033;50.936;5.334;2023-07-29T03:23:38;2.95;;;1.83;;
25023;SDS011;13033;50.936;5.334;2023-07-29T03:26:04;2.30;;;1.60;;
25023;SDS011;13033;50.936;5.334;2023-07-29T03:28:35;4.93;;;2.00;;
25023;SDS011;13033;50.936;5.334;2023-07-29T03:31:07;2.45;;;1.73;;
25023;SDS011;13033;50.936;5.334;2023-07-29T03:33:33;3.67;;;1.90;;
25023;SDS011;13033;50.936;5.334;2023-07-29T03:35:59;4.55;;;1.98;;
25023;SDS011;13033;50.936;5.334;2023-07-29T03:38:25;3.55;;;1.85;;
25023;SDS011;13033;50.936;5.334;2023-07-29T03:40:51;3.03;;;2.13;;
25023;SDS011;13033;50.936;5.334;2023-07-29T03:43:16;3.05;;;1.63;;
25023;SDS011;13033;50.936;5.334;2023-07-29T03:45:42;4.60;;;2.13;;
25023;SDS011;13033;50.936;5.334;2023-07-29T03:48:08;3.90;;;2.10;;
25023;SDS011;13033;50.936;5.334;2023-07-29T03:50:34;3.20;;;2.05;;
25023;SDS011;13033;50.936;5.334;2023-07-29T03:53:04;2.67;;;1.98;;
25023;SDS011;13033;50.936;5.334;2023-07-29T03:55:30;4.10;;;2.15;;
25023;SDS011;13033;50.936;5.334;2023-07-29T03:57:57;8.18;;;2.35;;
25023;SDS011;13033;50.936;5.334;2023-07-29T04:00:23;4.07;;;1.67;;
25023;SDS011;13033;50.936;5.334;2023-07-29T04:02:49;6.68;;;2.05;;
25023;SDS011;13033;50.936;5.334;2023-07-29T04:05:15;3.70;;;2.00;;
25023;SDS011;13033;50.936;5.334;2023-07-29T04:07:41;6.13;;;2.10;;
25023;SDS011;13033;50.936;5.334;2023-07-29T04:10:07;3.05;;;2.20;;
25023;SDS011;13033;50.936;5.334;2023-07-29T04:12:33;5.55;;;2.50;;
25023;SDS011;13033;50.936;5.334;2023-07-29T04:14:59;4.90;;;2.17;;
25023;SDS011;13033;50.936;5.334;2023-07-29T04:17:24;5.45;;;2.55;;
25023;SDS011;13033;50.936;5.334;2023-07-29T04:19:50;3.55;;;2.20;;
25023;SDS011;13033;50.936;5.334;2023-07-29T04:22:16;3.92;;;2.28;;
25023;SDS011;13033;50.936;5.334;2023-07-29T04:24:41;9.15;;;2.55;;
25023;SDS011;13033;50.936;5.334;2023-07-29T04:27:07;4.90;;;2.28;;
25023;SDS011;13033;50.936;5.334;2023-07-29T04:29:33;6.00;;;2.35;;
25023;SDS011;13033;50.936;5.334;2023-07-29T04:32:01;4.03;;;2.35;;
25023;SDS011;13033;50.936;5.334;2023-07-29T04:34:27;6.50;;;2.47;;
25023;SDS011;13033;50.936;5.334;2023-07-29T04:36:52;8.93;;;2.88;;
25023;SDS011;13033;50.936;5.334;2023-07-29T04:39:18;6.40;;;2.35;;
25023;SDS011;13033;50.936;5.334;2023-07-29T04:41:43;4.28;;;2.22;;
25023;SDS011;13033;50.936;5.334;2023-07-29T04:44:09;5.43;;;2.60;;
25023;SDS011;13033;50.936;5.334;2023-07-29T04:46:35;4.40;;;2.70;;
25023;SDS011;13033;50.936;5.334;2023-07-29T04:49:01;5.40;;;2.78;;
25023;SDS011;13033;50.936;5.334;2023-07-29T04:51:27;5.18;;;3.03;;
25023;SDS011;13033;50.936;5.334;2023-07-29T04:53:53;5.72;;;3.00;;
25023;SDS011;13033;50.936;5.334;2023-07-29T04:56:19;5.25;;;2.45;;
25023;SDS011;13033;50.936;5.334;2023-07-29T04:58:44;6.13;;;3.05;;
25023;SDS011;13033;50.936;5.334;2023-07-29T05:01:10;5.65;;;2.70;;
25023;SDS011;13033;50.936;5.334;2023-07-29T05:03:36;5.65;;;2.80;;
25023;SDS011;13033;50.936;5.334;2023-07-29T05:06:02;5.43;;;2.53;;
25023;SDS011;13033;50.936;5.334;2023-07-29T05:08:27;4.07;;;2.65;;
25023;SDS011;13033;50.936;5.334;2023-07-29T05:10:53;8.98;;;2.83;;
25023;SDS011;13033;50.936;5.334;2023-07-29T05:13:19;4.78;;;2.70;;
25023;SDS011;13033;50.936;5.334;2023-07-29T05:15:47;5.28;;;3.45;;
25023;SDS011;13033;50.936;5.334;2023-07-29T05:18:14;5.93;;;2.97;;
25023;SDS011;13033;50.936;5.334;2023-07-29T05:20:40;3.40;;;2.40;;
25023;SDS011;13033;50.936;5.334;2023-07-29T05:23:06;7.95;;;2.60;;
25023;SDS011;13033;50.936;5.334;2023-07-29T05:25:32;3.78;;;2.72;;
25023;SDS011;13033;50.936;5.334;2023-07-29T05:27:59;4.53;;;2.53;;
25023;SDS011;13033;50.936;5.334;2023-07-29T05:30:29;6.57;;;2.65;;
25023;SDS011;13033;50.936;5.334;2023-07-29T05:32:58;4.55;;;2.30;;
25023;SDS011;13033;50.936;5.334;2023-07-29T05:35:24;4.63;;;2.10;;
25023;SDS011;13033;50.936;5.334;2023-07-29T05:37:50;6.28;;;2.15;;
25023;SDS011;13033;50.936;5.334;2023-07-29T05:40:16;4.20;;;2.42;;
25023;SDS011;13033;50.936;5.334;2023-07-29T05:42:42;3.20;;;2.30;;
25023;SDS011;13033;50.936;5.334;2023-07-29T05:45:09;3.45;;;2.33;;
25023;SDS011;13033;50.936;5.334;2023-07-29T05:47:35;3.35;;;2.22;;
25023;SDS011;13033;50.936;5.334;2023-07-29T05:50:01;9.27;;;2.67;;
25023;SDS011;13033;50.936;5.334;2023-07-29T05:52:29;3.40;;;2.15;;
25023;SDS011;13033;50.936;5.334;2023-07-29T05:54:55;5.70;;;2.17;;
25023;SDS011;13033;50.936;5.334;2023-07-29T05:57:21;3.75;;;2.08;;
25023;SDS011;13033;50.936;5.334;2023-07-29T05:59:46;4.72;;;2.20;;
25023;SDS011;13033;50.936;5.334;2023-07-29T06:02:12;5.10;;;1.98;;
25023;SDS011;13033;50.936;5.334;2023-07-29T06:04:38;5.75;;;2.33;;
25023;SDS011;13033;50.936;5.334;2023-07-29T06:07:03;5.97;;;2.20;;
25023;SDS011;13033;50.936;5.334;2023-07-29T06:09:30;3.83;;;2.15;;
25023;SDS011;13033;50.936;5.334;2023-07-29T06:12:04;8.35;;;2.17;;
25023;SDS011;13033;50.936;5.334;2023-07-29T06:14:30;5.97;;;2.30;;
25023;SDS011;13033;50.936;5.334;2023-07-29T06:16:55;4.00;;;2.30;;
25023;SDS011;13033;50.936;5.334;2023-07-29T06:19:21;3.92;;;2.17;;
25023;SDS011;13033;50.936;5.334;2023-07-29T06:21:46;3.47;;;1.95;;
25023;SDS011;13033;50.936;5.334;2023-07-29T06:24:13;2.28;;;1.70;;
25023;SDS011;13033;50.936;5.334;2023-07-29T06:26:38;4.20;;;1.92;;
25023;SDS011;13033;50.936;5.334;2023-07-29T06:29:04;4.07;;;1.98;;
25023;SDS011;13033;50.936;5.334;2023-07-29T06:31:30;2.92;;;1.80;;
25023;SDS011;13033;50.936;5.334;2023-07-29T06:33:57;4.50;;;2.05;;
25023;SDS011;13033;50.936;5.334;2023-07-29T06:36:23;2.50;;;1.77;;
25023;SDS011;13033;50.936;5.334;2023-07-29T06:38:48;3.70;;;2.20;;
25023;SDS011;13033;50.936;5.334;2023-07-29T06:41:14;2.88;;;1.75;;
25023;SDS011;13033;50.936;5.334;2023-07-29T06:43:40;3.00;;;2.17;;
25023;SDS011;13033;50.936;5.334;2023-07-29T06:46:05;3.47;;;1.80;;
25023;SDS011;13033;50.936;5.334;2023-07-29T06:48:31;5.90;;;1.58;;
25023;SDS011;13033;50.936;5.334;2023-07-29T06:50:57;5.72;;;1.92;;
25023;SDS011;13033;50.936;5.334;2023-07-29T06:53:25;3.50;;;1.80;;
25023;SDS011;13033;50.936;5.334;2023-07-29T06:55:51;2.65;;;1.50;;
25023;SDS011;13033;50.936;5.334;2023-07-29T06:58:17;4.75;;;1.70;;
25023;SDS011;13033;50.936;5.334;2023-07-29T07:00:43;3.30;;;1.35;;
25023;SDS011;13033;50.936;5.334;2023-07-29T07:03:09;3.13;;;1.60;;
25023;SDS011;13033;50.936;5.334;2023-07-29T07:05:34;2.50;;;1.50;;
25023;SDS011;13033;50.936;5.334;2023-07-29T07:08:00;2.35;;;1.40;;
25023;SDS011;13033;50.936;5.334;2023-07-29T07:10:26;3.72;;;1.50;;
25023;SDS011;13033;50.936;5.334;2023-07-29T07:12:51;3.63;;;1.83;;
25023;SDS011;13033;50.936;5.334;2023-07-29T07:15:17;3.20;;;1.52;;
25023;SDS011;13033;50.936;5.334;2023-07-29T07:17:43;2.35;;;1.40;;
25023;SDS011;13033;50.936;5.334;2023-07-29T07:20:08;4.85;;;1.50;;
25023;SDS011;13033;50.936;5.334;2023-07-29T07:22:34;1.98;;;1.35;;
25023;SDS011;13033;50.936;5.334;2023-07-29T07:25:00;1.88;;;1.10;;
25023;SDS011;13033;50.936;5.334;2023-07-29T07:27:26;2.65;;;1.20;;
25023;SDS011;13033;50.936;5.334;2023-07-29T07:29:51;3.42;;;1.30;;
25023;SDS011;13033;50.936;5.334;2023-07-29T07:32:17;3.72;;;1.30;;
25023;SDS011;13033;50.936;5.334;2023-07-29T07:34:42;3.53;;;1.50;;
25023;SDS011;13033;50.936;5.334;2023-07-29T07:37:08;1.60;;;1.30;;
25023;SDS011;13033;50.936;5.334;2023-07-29T07:39:34;4.63;;;1.50;;
25023;SDS011;13033;50.936;5.334;2023-07-29T07:41:59;4.97;;;1.67;;
25023;SDS011;13033;50.936;5.334;2023-07-29T07:44:25;3.00;;;1.45;;
25023;SDS011;13033;50.936;5.334;2023-07-29T07:46:51;3.33;;;1.15;;
25023;SDS011;13033;50.936;5.334;2023-07-29T07:49:18;2.90;;;1.20;;
25023;SDS011;13033;50.936;5.334;2023-07-29T07:51:44;2.55;;;1.40;;
25023;SDS011;13033;50.936;5.334;2023-07-29T07:54:09;2.42;;;1.50;;
25023;SDS011;13033;50.936;5.334;2023-07-29T07:56:35;1.80;;;1.10;;
25023;SDS011;13033;50.936;5.334;2023-07-29T07:59:01;2.95;;;1.30;;
25023;SDS011;13033;50.936;5.334;2023-07-29T08:01:26;1.83;;;1.30;;
25023;SDS011;13033;50.936;5.334;2023-07-29T08:03:52;2.40;;;1.10;;
25023;SDS011;13033;50.936;5.334;2023-07-29T08:06:18;3.03;;;1.50;;
25023;SDS011;13033;50.936;5.334;2023-07-29T08:08:43;3.25;;;1.52;;
25023;SDS011;13033;50.936;5.334;2023-07-29T08:11:09;4.32;;;1.50;;
25023;SDS011;13033;50.936;5.334;2023-07-29T08:13:34;4.00;;;1.40;;
25023;SDS011;13033;50.936;5.334;2023-07-29T08:16:00;4.93;;;1.52;;
25023;SDS011;13033;50.936;5.334;2023-07-29T08:18:26;3.38;;;1.40;;
25023;SDS011;13033;50.936;5.334;2023-07-29T08:20:55;4.25;;;1.30;;
25023;SDS011;13033;50.936;5.334;2023-07-29T08:23:24;4.72;;;1.67;;
25023;SDS011;13033;50.936;5.334;2023-07-29T08:25:53;1.52;;;1.38;;
25023;SDS011;13033;50.936;5.334;2023-07-29T08:28:24;3.25;;;1.55;;
25023;SDS011;13033;50.936;5.334;2023-07-29T08:30:49;2.00;;;1.38;;
25023;SDS011;13033;50.936;5.334;2023-07-29T08:33:15;1.83;;;1.20;;
25023;SDS011;13033;50.936;5.334;2023-07-29T08:35:41;3.80;;;1.63;;
25023;SDS011;13033;50.936;5.334;2023-07-29T08:38:06;2.95;;;1.73;;
25023;SDS011;13033;50.936;5.334;2023-07-29T08:40:32;2.60;;;1.05;;
25023;SDS011;13033;50.936;5.334;2023-07-29T08:43:02;3.25;;;1.50;;
25023;SDS011;13033;50.936;5.334;2023-07-29T08:45:31;2.40;;;1.35;;
25023;SDS011;13033;50.936;5.334;2023-07-29T08:47:59;1.98;;;1.40;;
25023;SDS011;13033;50.936;5.334;2023-07-29T08:50:30;2.85;;;1.42;;
25023;SDS011;13033;50.936;5.334;2023-07-29T08:52:58;4.85;;;1.15;;
25023;SDS011;13033;50.936;5.334;2023-07-29T08:55:26;2.10;;;1.30;;
25023;SDS011;13033;50.936;5.334;2023-07-29T08:57:52;2.28;;;1.20;;
25023;SDS011;13033;50.936;5.334;2023-07-29T09:00:18;1.80;;;1.27;;
25023;SDS011;13033;50.936;5.334;2023-07-29T09:02:45;3.47;;;1.40;;
25023;SDS011;13033;50.936;5.334;2023-07-29T09:05:11;4.18;;;1.40;;
25023;SDS011;13033;50.936;5.334;2023-07-29T09:07:36;3.45;;;1.30;;
25023;SDS011;13033;50.936;5.334;2023-07-29T09:10:03;2.53;;;1.30;;
25023;SDS011;13033;50.936;5.334;2023-07-29T09:12:29;2.72;;;1.50;;
25023;SDS011;13033;50.936;5.334;2023-07-29T09:14:55;2.42;;;1.52;;
25023;SDS011;13033;50.936;5.334;2023-07-29T09:17:20;2.60;;;1.20;;
25023;SDS011;13033;50.936;5.334;2023-07-29T09:19:50;3.42;;;1.20;;
25023;SDS011;13033;50.936;5.334;2023-07-29T09:22:19;2.30;;;1.13;;
25023;SDS011;13033;50.936;5.334;2023-07-29T09:24:45;1.85;;;1.08;;
25023;SDS011;13033;50.936;5.334;2023-07-29T09:27:27;2.50;;;1.30;;
25023;SDS011;13033;50.936;5.334;2023-07-29T09:29:56;3.65;;;1.40;;
25023;SDS011;13033;50.936;5.334;2023-07-29T09:32:24;2.67;;;1.20;;
25023;SDS011;13033;50.936;5.334;2023-07-29T09:34:50;4.60;;;1.10;;
25023;SDS011;13033;50.936;5.334;2023-07-29T09:37:22;2.15;;;1.25;;
25023;SDS011;13033;50.936;5.334;2023-07-29T09:39:48;4.82;;;1.48;;
25023;SDS011;13033;50.936;5.334;2023-07-29T09:42:21;3.33;;;1.35;;
25023;SDS011;13033;50.936;5.334;2023-07-29T09:44:50;1.33;;;1.00;;
25023;SDS011;13033;50.936;5.334;2023-07-29T09:47:20;2.72;;;1.23;;
25023;SDS011;13033;50.936;5.334;2023-07-29T09:49:47;2.33;;;1.27;;
25023;SDS011;13033;50.936;5.334;2023-07-29T09:52:14;2.88;;;1.40;;
25023;SDS011;13033;50.936;5.334;2023-07-29T09:54:42;4.35;;;1.50;;
25023;SDS011;13033;50.936;5.334;2023-07-29T09:57:09;1.80;;;1.15;;
25023;SDS011;13033;50.936;5.334;2023-07-29T09:59:36;1.33;;;1.23;;
25023;SDS011;13033;50.936;5.334;2023-07-29T10:02:01;2.00;;;1.60;;
25023;SDS011;13033;50.936;5.334;2023-07-29T10:04:27;3.33;;;1.48;;
25023;SDS011;13033;50.936;5.334;2023-07-29T10:06:55;3.28;;;1.20;;
25023;SDS011;13033;50.936;5.334;2023-07-29T10:09:22;3.50;;;1.30;;
25023;SDS011;13033;50.936;5.334;2023-07-29T10:11:48;3.97;;;1.67;;
25023;SDS011;13033;50.936;5.334;2023-07-29T10:14:15;2.30;;;1.27;;
25023;SDS011;13033;50.936;5.334;2023-07-29T10:16:42;1.65;;;1.27;;
25023;SDS011;13033;50.936;5.334;2023-07-29T10:19:11;3.22;;;1.50;;
25023;SDS011;13033;50.936;5.334;2023-07-29T10:21:39;1.88;;;1.30;;
25023;SDS011;13033;50.936;5.334;2023-07-29T10:24:15;2.70;;;1.70;;
25023;SDS011;13033;50.936;5.334;2023-07-29T10:26:47;4.28;;;1.45;;
25023;SDS011;13033;50.936;5.334;2023-07-29T10:29:15;3.88;;;1.10;;
25023;SDS011;13033;50.936;5.334;2023-07-29T10:31:46;4.18;;;1.50;;
25023;SDS011;13033;50.936;5.334;2023-07-29T10:34:12;4.13;;;1.70;;
25023;SDS011;13033;50.936;5.334;2023-07-29T10:36:39;3.10;;;1.58;;
25023;SDS011;13033;50.936;5.334;2023-07-29T10:39:06;2.15;;;1.58;;
25023;SDS011;13033;50.936;5.334;2023-07-29T10:41:54;3.75;;;1.50;;
25023;SDS011;13033;50.936;5.334;2023-07-29T10:49:56;1.52;;;1.17;;
25023;SDS011;13033;50.936;5.334;2023-07-29T10:52:30;1.38;;;1.17;;
25023;SDS011;13033;50.936;5.334;2023-07-29T10:54:59;4.22;;;1.63;;
25023;SDS011;13033;50.936;5.334;2023-07-29T10:57:33;2.45;;;1.65;;
25023;SDS011;13033;50.936;5.334;2023-07-29T11:00:00;1.77;;;1.52;;
25023;SDS011;13033;50.936;5.334;2023-07-29T11:02:30;7.03;;;1.83;;
25023;SDS011;13033;50.936;5.334;2023-07-29T11:04:57;5.32;;;2.25;;
25023;SDS011;13033;50.936;5.334;2023-07-29T11:07:25;4.85;;;2.20;;
25023;SDS011;13033;50.936;5.334;2023-07-29T11:09:53;6.28;;;2.00;;
25023;SDS011;13033;50.936;5.334;2023-07-29T11:17:39;2.83;;;1.70;;
25023;SDS011;13033;50.936;5.334;2023-07-29T11:20:09;3.22;;;1.80;;
25023;SDS011;13033;50.936;5.334;2023-07-29T11:22:37;6.97;;;2.05;;
25023;SDS011;13033;50.936;5.334;2023-07-29T11:25:03;2.70;;;1.95;;
25023;SDS011;13033;50.936;5.334;2023-07-29T11:27:30;4.40;;;2.08;;
25023;SDS011;13033;50.936;5.334;2023-07-29T11:29:57;7.18;;;2.40;;
25023;SDS011;13033;50.936;5.334;2023-07-29T11:32:23;4.95;;;2.50;;
25023;SDS011;13033;50.936;5.334;2023-07-29T11:34:50;3.30;;;2.50;;
25023;SDS011;13033;50.936;5.334;2023-07-29T11:37:16;3.67;;;2.10;;
25023;SDS011;13033;50.936;5.334;2023-07-29T11:39:42;4.68;;;2.35;;
25023;SDS011;13033;50.936;5.334;2023-07-29T11:42:10;4.70;;;2.25;;
25023;SDS011;13033;50.936;5.334;2023-07-29T11:44:37;3.38;;;2.53;;
25023;SDS011;13033;50.936;5.334;2023-07-29T11:47:06;4.13;;;2.30;;
25023;SDS011;13033;50.936;5.334;2023-07-29T11:49:38;6.57;;;2.40;;
25023;SDS011;13033;50.936;5.334;2023-07-29T11:52:05;4.35;;;2.40;;
25023;SDS011;13033;50.936;5.334;2023-07-29T11:54:36;4.75;;;2.40;;
25023;SDS011;13033;50.936;5.334;2023-07-29T11:57:07;6.20;;;2.78;;
25023;SDS011;13033;50.936;5.334;2023-07-29T11:59:36;5.70;;;2.53;;
25023;SDS011;13033;50.936;5.334;2023-07-29T12:02:06;3.72;;;2.55;;
25023;SDS011;13033;50.936;5.334;2023-07-29T12:04:36;3.88;;;2.75;;
25023;SDS011;13033;50.936;5.334;2023-07-29T12:07:02;4.25;;;2.35;;
25023;SDS011;13033;50.936;5.334;2023-07-29T12:09:28;3.95;;;2.47;;
25023;SDS011;13033;50.936;5.334;2023-07-29T12:11:55;7.13;;;2.95;;
25023;SDS011;13033;50.936;5.334;2023-07-29T12:14:21;3.55;;;2.60;;
25023;SDS011;13033;50.936;5.334;2023-07-29T12:16:50;3.42;;;2.63;;
25023;SDS011;13033;50.936;5.334;2023-07-29T12:19:17;3.28;;;2.53;;
25023;SDS011;13033;50.936;5.334;2023-07-29T12:21:43;3.15;;;2.65;;
25023;SDS011;13033;50.936;5.334;2023-07-29T12:24:09;6.03;;;3.35;;
25023;SDS011;13033;50.936;5.334;2023-07-29T12:26:41;5.63;;;3.00;;
25023;SDS011;13033;50.936;5.334;2023-07-29T12:29:11;6.88;;;3.05;;
25023;SDS011;13033;50.936;5.334;2023-07-29T12:31:40;3.97;;;3.40;;
25023;SDS011;13033;50.936;5.334;2023-07-29T12:34:06;8.98;;;3.35;;
25023;SDS011;13033;50.936;5.334;2023-07-29T12:36:45;6.95;;;3.45;;
25023;SDS011;13033;50.936;5.334;2023-07-29T12:39:19;6.32;;;2.72;;
25023;SDS011;13033;50.936;5.334;2023-07-29T12:41:46;3.42;;;1.80;;
25023;SDS011;13033;50.936;5.334;2023-07-29T12:44:16;3.65;;;1.65;;
25023;SDS011;13033;50.936;5.334;2023-07-29T12:46:42;2.97;;;2.10;;
25023;SDS011;13033;50.936;5.334;2023-07-29T12:49:07;3.75;;;1.60;;
25023;SDS011;13033;50.936;5.334;2023-07-29T12:51:33;1.83;;;1.33;;
25023;SDS011;13033;50.936;5.334;2023-07-29T12:53:59;2.60;;;2.00;;
25023;SDS011;13033;50.936;5.334;2023-07-29T12:56:25;4.97;;;1.75;;
25023;SDS011;13033;50.936;5.334;2023-07-29T12:58:51;2.38;;;1.67;;
25023;SDS011;13033;50.936;5.334;2023-07-29T13:01:17;3.00;;;2.00;;
25023;SDS011;13033;50.936;5.334;2023-07-29T13:03:43;3.05;;;1.77;;
25023;SDS011;13033;50.936;5.334;2023-07-29T13:06:09;2.70;;;1.88;;
25023;SDS011;13033;50.936;5.334;2023-07-29T13:08:35;2.40;;;2.20;;
25023;SDS011;13033;50.936;5.334;2023-07-29T13:11:00;3.15;;;2.13;;
25023;SDS011;13033;50.936;5.334;2023-07-29T13:13:26;3.45;;;2.10;;
25023;SDS011;13033;50.936;5.334;2023-07-29T13:15:52;1.92;;;1.70;;
25023;SDS011;13033;50.936;5.334;2023-07-29T13:18:17;3.15;;;2.15;;
25023;SDS011;13033;50.936;5.334;2023-07-29T13:20:43;2.75;;;2.20;;
25023;SDS011;13033;50.936;5.334;2023-07-29T13:23:09;2.63;;;2.13;;
25023;SDS011;13033;50.936;5.334;2023-07-29T13:25:34;2.83;;;2.20;;
25023;SDS011;13033;50.936;5.334;2023-07-29T13:28:00;6.32;;;2.85;;
25023;SDS011;13033;50.936;5.334;2023-07-29T13:30:26;4.30;;;2.47;;
25023;SDS011;13033;50.936;5.334;2023-07-29T13:32:51;5.55;;;2.28;;
25023;SDS011;13033;50.936;5.334;2023-07-29T13:35:17;8.55;;;3.05;;
25023;SDS011;13033;50.936;5.334;2023-07-29T13:37:43;4.35;;;2.90;;
25023;SDS011;13033;50.936;5.334;2023-07-29T13:40:08;5.43;;;2.97;;
25023;SDS011;13033;50.936;5.334;2023-07-29T13:42:34;4.43;;;2.63;;
25023;SDS011;13033;50.936;5.334;2023-07-29T13:45:00;6.90;;;3.15;;
25023;SDS011;13033;50.936;5.334;2023-07-29T13:47:27;5.43;;;3.30;;
25023;SDS011;13033;50.936;5.334;2023-07-29T13:49:52;5.70;;;3.70;;
25023;SDS011;13033;50.936;5.334;2023-07-29T13:52:18;3.47;;;3.10;;
25023;SDS011;13033;50.936;5.334;2023-07-29T13:54:43;3.30;;;3.00;;
25023;SDS011;13033;50.936;5.334;2023-07-29T13:57:09;4.97;;;3.17;;
25023;SDS011;13033;50.936;5.334;2023-07-29T13:59:35;4.30;;;2.28;;
25023;SDS011;13033;50.936;5.334;2023-07-29T14:02:04;6.43;;;2.70;;
25023;SDS011;13033;50.936;5.334;2023-07-29T14:04:30;3.92;;;2.20;;
25023;SDS011;13033;50.936;5.334;2023-07-29T14:06:57;5.80;;;2.45;;
25023;SDS011;13033;50.936;5.334;2023-07-29T14:09:22;4.57;;;2.00;;
25023;SDS011;13033;50.936;5.334;2023-07-29T14:11:48;4.85;;;2.15;;
25023;SDS011;13033;50.936;5.334;2023-07-29T14:14:14;4.95;;;1.90;;
25023;SDS011;13033;50.936;5.334;2023-07-29T14:16:40;3.55;;;2.00;;
25023;SDS011;13033;50.936;5.334;2023-07-29T14:19:06;3.78;;;1.90;;
25023;SDS011;13033;50.936;5.334;2023-07-29T14:21:31;2.67;;;2.00;;
25023;SDS011;13033;50.936;5.334;2023-07-29T14:23:57;3.75;;;1.95;;
25023;SDS011;13033;50.936;5.334;2023-07-29T14:26:23;1.83;;;1.67;;
25023;SDS011;13033;50.936;5.334;2023-07-29T14:28:48;3.20;;;2.05;;
25023;SDS011;13033;50.936;5.334;2023-07-29T14:31:15;3.35;;;1.70;;
25023;SDS011;13033;50.936;5.334;2023-07-29T14:33:42;5.10;;;1.90;;
25023;SDS011;13033;50.936;5.334;2023-07-29T14:36:08;1.63;;;1.45;;
25023;SDS011;13033;50.936;5.334;2023-07-29T14:38:34;3.35;;;1.92;;
25023;SDS011;13033;50.936;5.334;2023-07-29T14:41:00;2.00;;;1.42;;
25023;SDS011;13033;50.936;5.334;2023-07-29T14:43:26;1.80;;;1.50;;
25023;SDS011;13033;50.936;5.334;2023-07-29T14:45:52;4.80;;;1.52;;
25023;SDS011;13033;50.936;5.334;2023-07-29T14:48:17;1.67;;;1.20;;
25023;SDS011;13033;50.936;5.334;2023-07-29T14:50:43;1.20;;;1.10;;
25023;SDS011;13033;50.936;5.334;2023-07-29T14:53:09;2.55;;;1.20;;
25023;SDS011;13033;50.936;5.334;2023-07-29T14:55:36;2.25;;;1.20;;
25023;SDS011;13033;50.936;5.334;2023-07-29T14:58:02;2.30;;;1.35;;
25023;SDS011;13033;50.936;5.334;2023-07-29T15:00:28;3.47;;;1.30;;
25023;SDS011;13033;50.936;5.334;2023-07-29T15:02:53;3.58;;;1.20;;
25023;SDS011;13033;50.936;5.334;2023-07-29T15:05:19;1.52;;;1.40;;
25023;SDS011;13033;50.936;5.334;2023-07-29T15:07:45;1.90;;;1.25;;